Time;durP1;ratioP1;P1;durP2;ratioP2;P2;SDS_P1;SDS_P2;PMS_P1;PMS_P2;Temp;Humidity;BMP_temperature;BMP_pressure;BME280_temperature;BME280_humidity;BME280_pressure;Samples;Min_cycle;Max_cycle;Signal;HPM_P1;HPM_P2
2022/03/05 00:01:14;;;;;;;5.70;4.73;;;3.70;51.30;3.50;96582.00;;;;5045024;28;20459;-88
2022/03/05 00:03:41;;;;;;;5.93;4.57;;;3.70;51.40;3.50;96575.00;;;;5052028;28;21000;-88
2022/03/05 00:06:08;;;;;;;6.20;4.97;;;3.70;51.50;3.40;96570.00;;;;5047826;28;20811;-88
2022/03/05 00:08:35;;;;;;;5.97;4.53;;;3.60;51.50;3.40;96572.00;;;;5035356;28;20440;-88
2022/03/05 00:11:04;;;;;;;8.37;5.47;;;3.60;51.60;3.40;96564.00;;;;5052115;28;20493;-89
2022/03/05 00:13:31;;;;;;;5.63;4.67;;;3.60;51.60;3.40;96572.00;;;;5041332;28;20461;-88
2022/03/05 00:15:58;;;;;;;5.77;4.70;;;3.60;51.60;3.40;96564.00;;;;5048769;28;20440;-88
2022/03/05 00:18:25;;;;;;;6.23;5.27;;;3.60;51.50;3.40;96557.00;;;;5051703;28;20440;-87
2022/03/05 00:20:53;;;;;;;6.80;5.27;;;3.30;51.50;3.40;96568.00;;;;5041013;28;20527;-87
2022/03/05 00:23:20;;;;;;;5.80;5.17;;;3.60;51.70;3.40;96571.00;;;;5051951;28;21000;-88
2022/03/05 00:25:47;;;;;;;6.67;5.20;;;3.50;51.70;3.40;96564.00;;;;5049254;28;20440;-89
2022/03/05 00:28:16;;;;;;;7.10;4.90;;;3.50;51.80;3.40;96568.00;;;;5051933;28;20467;-88
2022/03/05 00:30:43;;;;;;;8.97;5.30;;;3.50;51.80;3.30;96564.00;;;;5052351;28;20479;-88
2022/03/05 00:33:10;;;;;;;8.53;5.57;;;3.50;51.90;3.30;96560.00;;;;5052013;28;20911;-87
2022/03/05 00:35:37;;;;;;;6.67;5.07;;;3.50;51.80;3.30;96569.00;;;;5052081;28;20435;-89
2022/03/05 00:38:05;;;;;;;8.00;5.30;;;3.50;52.00;3.30;96564.00;;;;5051070;28;20436;-89
2022/03/05 00:40:32;;;;;;;9.13;5.37;;;3.50;52.00;3.30;96564.00;;;;5050650;28;20447;-86
2022/03/05 00:42:59;;;;;;;5.83;4.63;;;3.50;52.10;3.30;96567.00;;;;5043542;28;20461;-89
2022/03/05 00:45:28;;;;;;;8.47;5.07;;;3.50;52.00;3.20;96569.00;;;;5052051;28;20435;-87
2022/03/05 00:47:55;;;;;;;6.90;5.20;;;3.50;52.10;3.20;96564.00;;;;5046724;28;20795;-88
2022/03/05 00:50:22;;;;;;;6.43;5.30;;;4.20;52.30;3.20;96570.00;;;;5051274;28;20466;-87
2022/03/05 00:52:49;;;;;;;6.13;5.30;;;3.40;52.10;3.20;96565.00;;;;5051883;28;20443;-87
2022/03/05 00:55:16;;;;;;;8.77;5.60;;;3.40;52.20;3.20;96567.00;;;;5051588;28;20530;-87
2022/03/05 00:57:43;;;;;;;6.83;5.17;;;3.40;52.20;3.20;96563.00;;;;5051566;28;20526;-87
2022/03/05 01:00:11;;;;;;;7.87;5.00;;;3.40;52.40;3.20;96561.00;;;;5051785;28;20438;-86
2022/03/05 01:02:41;;;;;;;7.77;5.27;;;3.40;53.00;3.20;96564.00;;;;5051660;28;20439;-87
2022/03/05 01:05:09;;;;;;;6.77;4.73;;;3.40;52.40;3.10;96564.00;;;;5052592;28;20459;-88
2022/03/05 01:07:37;;;;;;;5.53;4.97;;;3.40;52.40;3.10;96561.00;;;;5052027;28;20964;-87
2022/03/05 01:10:06;;;;;;;6.10;4.80;;;3.50;52.50;3.10;96558.00;;;;5053440;28;20439;-88
2022/03/05 01:12:34;;;;;;;5.40;4.50;;;3.30;52.40;3.10;96558.00;;;;5052844;28;20529;-87
2022/03/05 01:15:04;;;;;;;6.93;5.40;;;3.30;52.40;3.00;96561.00;;;;5052013;28;20467;-88
2022/03/05 01:17:31;;;;;;;5.47;4.50;;;2.10;51.90;3.00;96560.00;;;;5051200;28;20819;-85
2022/03/05 01:19:59;;;;;;;8.27;5.00;;;3.30;52.50;3.00;96560.00;;;;5051295;28;20526;-87
2022/03/05 01:22:26;;;;;;;7.17;5.07;;;3.30;52.60;3.00;96564.00;;;;5051284;28;21278;-88
2022/03/05 01:24:53;;;;;;;6.33;4.57;;;3.30;52.50;3.00;96566.00;;;;5051429;28;20506;-87
2022/03/05 01:27:22;;;;;;;6.13;4.90;;;3.20;52.60;3.00;96556.00;;;;5051439;28;20445;-88
2022/03/05 01:29:51;;;;;;;7.20;5.00;;;3.20;52.70;3.00;96562.00;;;;5051479;28;20455;-88
2022/03/05 01:32:18;;;;;;;7.17;4.53;;;3.20;52.80;3.00;96552.00;;;;5051570;28;20509;-88
2022/03/05 01:34:45;;;;;;;5.77;4.90;;;3.20;52.90;2.90;96539.00;;;;5050268;28;20838;-88
2022/03/05 01:37:14;;;;;;;5.30;4.77;;;3.20;52.90;2.90;96549.00;;;;5050841;28;20448;-88
2022/03/05 01:39:43;;;;;;;7.40;4.83;;;3.20;52.90;2.90;96547.00;;;;5050666;28;20447;-88
2022/03/05 01:42:10;;;;;;;6.20;4.47;;;3.20;52.80;2.90;96544.00;;;;5051294;28;20470;-87
2022/03/05 01:44:37;;;;;;;8.03;4.67;;;3.20;52.90;2.90;96545.00;;;;5051388;28;20466;-87
2022/03/05 01:47:06;;;;;;;7.07;5.17;;;3.20;52.90;2.90;96552.00;;;;5051209;28;20515;-88
2022/03/05 01:49:33;;;;;;;6.43;4.67;;;3.20;53.30;2.90;96545.00;;;;5051264;28;21057;-85
2022/03/05 01:52:01;;;;;;;6.10;4.60;;;3.10;53.10;2.90;96550.00;;;;5050646;28;20856;-88
2022/03/05 01:54:31;;;;;;;5.53;4.93;;;3.20;53.20;2.90;96538.00;;;;5050287;28;20466;-86
2022/03/05 01:57:01;;;;;;;7.93;5.20;;;3.20;53.60;2.90;96539.00;;;;5051224;28;20458;-86
2022/03/05 01:59:28;;;;;;;6.27;4.80;;;3.10;53.20;2.90;96541.00;;;;5051008;28;20564;-86
2022/03/05 02:01:56;;;;;;;6.33;4.63;;;3.10;53.80;2.90;96540.00;;;;5051127;28;20439;-89
2022/03/05 02:04:23;;;;;;;6.37;4.87;;;3.10;53.30;2.90;96543.00;;;;5054311;28;20455;-87
2022/03/05 02:06:52;;;;;;;6.30;4.70;;;3.10;53.30;2.90;96534.00;;;;5053328;28;20434;-86
2022/03/05 02:09:19;;;;;;;5.80;4.67;;;3.10;53.40;2.90;96533.00;;;;5052639;28;20817;-87
2022/03/05 02:11:47;;;;;;;7.80;4.97;;;3.10;53.30;2.90;96528.00;;;;5050953;28;20490;-88
2022/03/05 02:14:18;;;;;;;7.43;4.47;;;3.10;53.50;2.90;96528.00;;;;5052595;28;20455;-86
2022/03/05 02:16:46;;;;;;;6.13;4.67;;;3.10;53.50;2.90;96519.00;;;;5052577;28;20493;-89
2022/03/05 02:19:13;;;;;;;7.30;5.07;;;3.10;53.40;2.80;96526.00;;;;5053870;28;20446;-87
2022/03/05 02:21:42;;;;;;;7.90;5.17;;;3.20;53.50;2.80;96516.00;;;;5054124;28;20439;-87
2022/03/05 02:24:09;;;;;;;6.00;4.93;;;3.10;53.50;2.80;96521.00;;;;5053977;28;20463;-87
2022/03/05 02:26:36;;;;;;;6.67;5.10;;;3.20;53.80;2.80;96513.00;;;;5053205;28;20839;-89
2022/03/05 02:29:03;;;;;;;6.60;5.40;;;3.10;53.80;2.80;96515.00;;;;5054714;28;20466;-88
2022/03/05 02:31:30;;;;;;;6.20;4.60;;;3.10;53.70;2.80;96512.00;;;;5053815;28;20968;-88
2022/03/05 02:33:58;;;;;;;5.90;5.00;;;3.10;53.80;2.80;96511.00;;;;5053937;28;20451;-88
2022/03/05 02:36:26;;;;;;;5.67;5.00;;;3.10;53.80;2.80;96511.00;;;;5053442;28;20520;-88
2022/03/05 02:38:54;;;;;;;8.23;5.50;;;3.00;53.70;2.80;96512.00;;;;5053783;28;20447;-87
2022/03/05 02:41:21;;;;;;;7.30;5.30;;;3.00;53.80;2.80;96517.00;;;;5054092;28;20443;-88
2022/03/05 02:43:48;;;;;;;6.43;4.63;;;3.00;53.90;2.80;96512.00;;;;5054802;28;20465;-87
2022/03/05 02:46:16;;;;;;;7.77;5.43;;;3.00;53.90;2.80;96504.00;;;;5053633;28;20535;-89
2022/03/05 02:48:43;;;;;;;6.43;5.37;;;3.00;53.80;2.80;96502.00;;;;5053880;28;20448;-89
2022/03/05 02:51:10;;;;;;;8.03;5.40;;;3.00;53.80;2.80;96502.00;;;;5056436;28;20444;-84
2022/03/05 02:53:37;;;;;;;8.47;5.40;;;3.00;54.00;2.80;96495.00;;;;5056221;28;20522;-89
2022/03/05 02:56:06;;;;;;;6.27;5.13;;;3.00;54.00;2.80;96507.00;;;;5062829;28;20507;-88
2022/03/05 02:58:33;;;;;;;8.50;5.83;;;4.00;54.60;2.70;96502.00;;;;5058900;28;20530;-89
2022/03/05 03:01:00;;;;;;;8.13;5.20;;;3.00;54.10;2.70;96502.00;;;;5074627;28;20439;-86
2022/03/05 03:03:27;;;;;;;9.37;5.50;;;3.00;54.10;2.70;96499.00;;;;5076688;28;20495;-87
2022/03/05 03:05:54;;;;;;;9.53;5.47;;;3.00;54.10;2.70;96500.00;;;;5074532;28;20431;-89
2022/03/05 03:08:21;;;;;;;6.37;4.90;;;3.00;54.30;2.70;96496.00;;;;5056578;28;20444;-90
2022/03/05 03:10:48;;;;;;;7.13;5.13;;;2.90;54.30;2.70;96496.00;;;;5055138;28;20441;-90
2022/03/05 03:15:47;;;;;;;8.37;5.70;;;2.90;54.40;2.70;96490.00;;;;5003220;28;20479;-80
2022/03/05 03:18:18;;;;;;;9.57;6.10;;;2.90;55.00;2.60;96492.00;;;;5012036;28;21041;-80
2022/03/05 03:20:45;;;;;;;8.23;5.57;;;2.90;54.60;2.60;96494.00;;;;5015892;28;20441;-80
2022/03/05 03:23:13;;;;;;;8.07;5.40;;;2.90;54.60;2.60;96496.00;;;;5012079;28;20472;-80
2022/03/05 03:25:40;;;;;;;8.80;6.17;;;2.90;54.70;2.60;96492.00;;;;5015943;28;20455;-80
2022/03/05 03:28:08;;;;;;;9.80;6.30;;;2.90;54.70;2.60;96490.00;;;;5008739;28;20457;-81
2022/03/05 03:30:36;;;;;;;8.53;5.50;;;2.90;54.70;2.60;96484.00;;;;5031374;28;20442;-81
2022/03/05 03:33:05;;;;;;;6.87;5.43;;;2.90;54.80;2.60;96496.00;;;;5008270;28;20490;-80
2022/03/05 03:35:32;;;;;;;7.13;5.57;;;2.90;54.70;2.60;96497.00;;;;5013851;28;20452;-81
2022/03/05 03:37:59;;;;;;;9.20;5.77;;;2.90;54.60;2.60;96500.00;;;;5013787;28;20441;-80
2022/03/05 03:40:26;;;;;;;7.43;5.63;;;2.90;54.60;2.60;96495.00;;;;4999853;28;20534;-81
2022/03/05 03:42:54;;;;;;;7.20;5.90;;;2.90;54.80;2.60;96504.00;;;;4997049;28;20545;-81
2022/03/05 03:45:21;;;;;;;8.63;5.73;;;2.80;54.80;2.60;96496.00;;;;5007358;28;20443;-80
2022/03/05 03:47:52;;;;;;;9.57;5.90;;;2.80;54.90;2.50;96507.00;;;;5016679;28;20475;-80
2022/03/05 03:50:23;;;;;;;10.53;6.30;;;2.80;55.10;2.60;96506.00;;;;5016859;28;20871;-80
2022/03/05 03:52:52;;;;;;;8.73;6.47;;;2.80;55.00;2.50;96500.00;;;;5016811;28;20491;-81
2022/03/05 03:55:22;;;;;;;10.37;7.07;;;2.80;54.90;2.50;96504.00;;;;5010961;28;20504;-81
2022/03/05 03:57:49;;;;;;;9.43;5.90;;;2.80;55.00;2.50;96507.00;;;;5003480;28;20524;-81
2022/03/05 04:00:19;;;;;;;9.90;6.13;;;2.80;55.20;2.50;96511.00;;;;4999110;28;20444;-80
2022/03/05 04:02:46;;;;;;;10.00;6.30;;;2.80;55.20;2.50;96508.00;;;;4997438;28;20469;-80
2022/03/05 04:05:13;;;;;;;9.87;6.53;;;2.80;55.20;2.50;96509.00;;;;5013573;28;20473;-80
2022/03/05 04:10:27;;;;;;;9.33;6.07;;;2.80;55.10;2.50;96515.00;;;;4998499;28;20421;-80
2022/03/05 04:12:54;;;;;;;8.17;5.57;;;2.80;55.10;2.50;96518.00;;;;4995869;28;20492;-81
2022/03/05 04:15:21;;;;;;;8.00;5.63;;;2.80;55.10;2.40;96515.00;;;;5025300;28;20532;-81
2022/03/05 04:17:50;;;;;;;9.20;6.20;;;2.70;55.20;2.40;96520.00;;;;5026877;28;20437;-81
2022/03/05 04:20:18;;;;;;;9.00;6.23;;;2.70;55.20;2.40;96521.00;;;;5016472;28;20444;-81
2022/03/05 04:22:46;;;;;;;10.83;6.70;;;2.70;55.40;2.40;96514.00;;;;5031205;28;20510;-81
2022/03/05 04:25:14;;;;;;;10.77;6.53;;;2.70;55.70;2.40;96517.00;;;;5033458;28;21156;-80
2022/03/05 04:27:41;;;;;;;8.73;6.03;;;2.70;55.30;2.40;96519.00;;;;5024363;28;20450;-81
2022/03/05 04:30:10;;;;;;;10.50;6.73;;;2.70;55.40;2.40;96514.00;;;;5015821;28;20524;-81
2022/03/05 04:32:38;;;;;;;9.97;6.30;;;2.70;55.50;2.40;96516.00;;;;5015504;28;20485;-81
2022/03/05 04:35:07;;;;;;;10.63;6.40;;;2.70;55.50;2.40;96522.00;;;;5015195;28;20449;-80
2022/03/05 04:37:34;;;;;;;9.13;6.03;;;2.70;55.80;2.40;96518.00;;;;5022557;28;20539;-80
2022/03/05 04:40:03;;;;;;;8.90;6.10;;;2.70;55.70;2.40;96511.00;;;;5035524;28;20503;-80
2022/03/05 04:42:30;;;;;;;9.13;6.43;;;2.70;55.80;2.40;96517.00;;;;5035407;28;20965;-81
2022/03/05 04:44:58;;;;;;;9.77;6.50;;;2.70;56.30;2.40;96515.00;;;;5035844;28;20507;-81
2022/03/05 04:47:26;;;;;;;9.47;6.50;;;2.70;55.80;2.30;96526.00;;;;5027913;28;20444;-81
2022/03/05 04:49:55;;;;;;;9.60;6.97;;;2.60;55.80;2.40;96514.00;;;;5015133;28;20446;-80
2022/03/05 04:52:22;;;;;;;10.53;6.43;;;2.60;56.40;2.30;96523.00;;;;5014561;28;20850;-80
2022/03/05 04:54:49;;;;;;;9.93;6.80;;;2.60;55.80;2.30;96528.00;;;;5034977;28;20901;-81
2022/03/05 04:57:17;;;;;;;8.90;6.37;;;2.60;55.90;2.30;96523.00;;;;5035345;28;20519;-81
2022/03/05 04:59:44;;;;;;;10.23;6.67;;;2.60;56.10;2.30;96532.00;;;;5036329;28;20504;-81
2022/03/05 05:02:11;;;;;;;9.57;6.33;;;2.60;55.90;2.30;96521.00;;;;5034457;28;20454;-81
2022/03/05 05:04:38;;;;;;;11.30;7.00;;;2.60;56.10;2.30;96525.00;;;;5036194;28;20482;-81
2022/03/05 05:07:05;;;;;;;11.57;6.83;;;2.60;56.10;2.30;96530.00;;;;5036166;28;20952;-81
2022/03/05 05:09:33;;;;;;;8.03;6.13;;;2.50;56.20;2.20;96525.00;;;;5037317;28;20535;-82
2022/03/05 05:12:03;;;;;;;9.67;6.77;;;2.50;56.20;2.20;96522.00;;;;5035674;28;20542;-81
2022/03/05 05:14:32;;;;;;;11.40;6.67;;;2.50;56.20;2.20;96530.00;;;;5030267;28;20558;-81
2022/03/05 05:16:59;;;;;;;10.27;6.97;;;2.50;56.30;2.20;96526.00;;;;5022293;28;20472;-81
2022/03/05 05:19:27;;;;;;;9.73;6.83;;;2.50;56.10;2.20;96523.00;;;;5016258;28;20493;-81
2022/03/05 05:21:58;;;;;;;10.20;6.87;;;2.50;56.40;2.20;96527.00;;;;5030637;28;20871;-81
2022/03/05 05:24:26;;;;;;;10.23;7.10;;;2.50;56.30;2.20;96530.00;;;;5034747;28;20543;-81
2022/03/05 05:26:53;;;;;;;11.20;6.97;;;2.50;56.40;2.20;96527.00;;;;5033453;28;20463;-81
2022/03/05 05:29:21;;;;;;;9.47;6.87;;;2.50;56.50;2.20;96539.00;;;;5027576;28;20499;-81
2022/03/05 05:31:50;;;;;;;8.03;6.70;;;2.50;56.60;2.20;96535.00;;;;5035040;28;20866;-81
2022/03/05 05:34:18;;;;;;;11.30;6.87;;;2.50;56.80;2.20;96541.00;;;;5035182;28;20459;-81
2022/03/05 05:36:46;;;;;;;10.80;7.30;;;2.40;56.60;2.20;96544.00;;;;5036265;28;20434;-81
2022/03/05 05:39:13;;;;;;;12.17;7.17;;;2.50;56.70;2.20;96540.00;;;;5030496;28;20468;-81
2022/03/05 05:41:41;;;;;;;10.43;6.87;;;2.50;56.70;2.20;96530.00;;;;5026909;28;20523;-81
2022/03/05 05:44:11;;;;;;;12.23;7.57;;;2.50;56.80;2.10;96538.00;;;;5029549;28;20511;-81
2022/03/05 05:46:39;;;;;;;9.47;7.20;;;2.40;56.70;2.10;96541.00;;;;5020219;28;20472;-81
2022/03/05 05:49:08;;;;;;;10.83;6.53;;;2.40;56.60;2.10;96542.00;;;;5036945;28;20433;-86
2022/03/05 05:51:36;;;;;;;12.03;7.77;;;2.40;56.80;2.20;96546.00;;;;5025241;28;20891;-87
2022/03/05 05:54:03;;;;;;;9.77;7.37;;;2.40;56.70;2.20;96549.00;;;;5032636;28;21043;-87
2022/03/05 05:56:31;;;;;;;11.17;7.60;;;2.40;56.70;2.20;96543.00;;;;5026753;28;20551;-87
2022/03/05 05:58:58;;;;;;;11.87;7.30;;;2.40;56.70;2.30;96551.00;;;;5015525;28;20968;-87
2022/03/05 06:01:25;;;;;;;10.70;7.00;;;2.50;56.80;2.30;96549.00;;;;5021286;28;20877;-87
2022/03/05 06:03:53;;;;;;;11.17;7.40;;;2.40;56.80;2.30;96550.00;;;;5034877;28;20547;-87
2022/03/05 06:06:22;;;;;;;11.50;7.60;;;2.40;56.70;2.30;96547.00;;;;5014801;28;20517;-87
2022/03/05 06:08:50;;;;;;;10.93;7.67;;;2.40;56.80;2.30;96560.00;;;;5032755;28;20472;-87
2022/03/05 06:11:17;;;;;;;9.20;6.90;;;2.40;56.70;2.30;96560.00;;;;5034770;28;20493;-87
2022/03/05 06:13:45;;;;;;;10.80;7.43;;;2.60;56.90;2.30;96560.00;;;;5021111;28;20494;-87
2022/03/05 06:16:12;;;;;;;11.40;7.63;;;2.50;57.10;2.30;96562.00;;;;5034502;28;20479;-88
2022/03/05 06:18:40;;;;;;;12.13;8.20;;;2.50;57.10;2.40;96566.00;;;;5034440;28;20455;-87
2022/03/05 06:21:08;;;;;;;13.43;7.67;;;2.50;56.90;2.40;96564.00;;;;5034473;28;20486;-86
2022/03/05 06:23:37;;;;;;;10.90;7.50;;;2.70;57.20;2.40;96566.00;;;;5034802;28;20530;-86
2022/03/05 06:26:05;;;;;;;12.10;7.97;;;2.50;57.20;2.40;96579.00;;;;5034104;28;20455;-86
2022/03/05 06:28:33;;;;;;;12.77;7.73;;;3.20;57.30;2.40;96577.00;;;;5021096;28;20536;-86
2022/03/05 06:31:00;;;;;;;10.60;7.23;;;2.50;57.20;2.40;96574.00;;;;5022056;28;20551;-86
2022/03/05 06:33:28;;;;;;;11.50;7.83;;;2.60;57.80;2.50;96577.00;;;;5040669;28;20521;-86
2022/03/05 06:35:55;;;;;;;11.53;7.80;;;2.60;57.50;2.50;96576.00;;;;5027336;28;20543;-86
2022/03/05 06:38:22;;;;;;;12.47;8.60;;;2.60;57.30;2.50;96587.00;;;;5014930;28;20477;-86
2022/03/05 06:40:51;;;;;;;10.90;7.50;;;2.60;57.30;2.50;96589.00;;;;5043346;28;20453;-87
2022/03/05 06:43:19;;;;;;;11.70;7.87;;;2.70;57.40;2.50;96579.00;;;;5057217;28;20487;-85
2022/03/05 06:45:47;;;;;;;13.13;8.27;;;2.70;57.40;2.60;96577.00;;;;5036017;28;20440;-86
2022/03/05 06:48:14;;;;;;;12.13;7.97;;;2.70;57.50;2.60;96583.00;;;;5035685;28;20436;-86
2022/03/05 06:50:42;;;;;;;14.37;8.00;;;2.70;57.60;2.60;96584.00;;;;5034817;28;20471;-86
2022/03/05 06:53:09;;;;;;;13.63;8.00;;;2.70;57.80;2.60;96580.00;;;;5033530;28;20507;-86
2022/03/05 06:55:36;;;;;;;13.10;8.23;;;2.90;57.80;2.70;96581.00;;;;5030258;28;20791;-87
2022/03/05 06:58:05;;;;;;;11.00;7.97;;;2.80;58.30;2.70;96585.00;;;;5014669;28;20496;-85
2022/03/05 07:00:32;;;;;;;11.37;8.10;;;2.80;57.90;2.80;96582.00;;;;5018653;28;20472;-86
2022/03/05 07:02:59;;;;;;;13.00;8.00;;;3.00;58.00;2.80;96588.00;;;;5019403;28;20548;-85
2022/03/05 07:05:27;;;;;;;12.23;8.50;;;2.90;57.80;2.90;96588.00;;;;5022800;28;20520;-85
2022/03/05 07:07:54;;;;;;;12.93;8.50;;;3.00;57.90;2.90;96588.00;;;;5035073;28;20494;-85
2022/03/05 07:10:21;;;;;;;12.57;8.50;;;3.00;58.00;3.00;96586.00;;;;5035082;28;20436;-87
2022/03/05 07:12:49;;;;;;;13.40;8.87;;;3.30;58.10;3.00;96592.00;;;;5035949;28;20583;-85
2022/03/05 07:15:17;;;;;;;12.17;8.33;;;3.10;57.90;3.10;96575.00;;;;5031121;28;20543;-85
2022/03/05 07:17:53;;;;;;;12.37;8.40;;;3.10;58.00;3.10;96595.00;;;;5032483;28;20529;-85
2022/03/05 07:20:23;;;;;;;14.33;8.77;;;3.20;58.00;3.10;96587.00;;;;5021097;28;20452;-85
2022/03/05 07:22:50;;;;;;;13.17;8.80;;;3.20;57.90;3.20;96596.00;;;;5034839;28;20514;-85
2022/03/05 07:25:17;;;;;;;13.13;9.17;;;3.30;57.90;3.20;96597.00;;;;5032457;28;20446;-86
2022/03/05 07:27:45;;;;;;;13.90;8.63;;;3.30;58.00;3.30;96598.00;;;;5032883;28;20490;-85
2022/03/05 07:30:13;;;;;;;14.20;8.77;;;3.30;57.90;3.30;96596.00;;;;5042030;28;20444;-85
2022/03/05 07:32:42;;;;;;;16.27;9.07;;;3.40;58.00;3.40;96602.00;;;;5018134;28;20437;-86
2022/03/05 07:35:10;;;;;;;13.53;8.87;;;3.50;57.90;3.40;96596.00;;;;5017024;28;20440;-86
2022/03/05 07:37:37;;;;;;;13.70;9.07;;;3.50;57.90;3.50;96602.00;;;;5016236;28;20465;-87
2022/03/05 07:40:06;;;;;;;13.50;9.07;;;3.50;58.10;3.50;96601.00;;;;5017912;28;20439;-86
2022/03/05 07:42:34;;;;;;;15.47;9.53;;;3.60;58.10;3.60;96593.00;;;;5038482;28;20467;-86
2022/03/05 07:45:45;;;;;;;11.80;8.50;;;3.60;58.00;3.70;96602.00;;;;5034843;28;20494;-85
2022/03/05 07:48:19;;;;;;;13.07;8.00;;;3.70;58.10;3.70;96590.00;;;;5050847;22;20505;-86
2022/03/05 07:50:48;;;;;;;13.67;8.60;;;3.80;58.10;3.70;96606.00;;;;5043515;28;20483;-85
2022/03/05 07:53:16;;;;;;;11.93;8.87;;;4.30;58.30;3.90;96594.00;;;;5046521;28;20498;-84
2022/03/05 07:55:44;;;;;;;13.77;10.07;;;3.90;58.00;4.00;96589.00;;;;5044183;28;20506;-87
2022/03/05 07:58:11;;;;;;;14.60;9.60;;;4.00;58.00;4.10;96600.00;;;;5046814;28;20472;-85
2022/03/05 08:00:38;;;;;;;13.37;8.93;;;4.10;58.10;4.20;96608.00;;;;5046460;28;20471;-86
2022/03/05 08:03:06;;;;;;;14.70;9.77;;;4.20;58.20;4.30;96594.00;;;;5046196;28;20482;-87
2022/03/05 08:05:35;;;;;;;13.50;9.57;;;4.20;58.40;4.50;96611.00;;;;5048188;28;20456;-85
2022/03/05 08:08:03;;;;;;;13.73;9.40;;;4.40;58.40;4.70;96592.00;;;;5048595;28;20439;-85
2022/03/05 08:10:30;;;;;;;13.20;9.13;;;4.70;58.60;4.90;96610.00;;;;5045306;28;20193;-86
2022/03/05 08:12:57;;;;;;;14.40;9.80;;;4.60;58.40;5.10;96624.00;;;;5047790;28;20229;-88
2022/03/05 08:15:24;;;;;;;13.83;9.53;;;4.80;58.50;5.20;96621.00;;;;5047228;28;20263;-87
2022/03/05 08:17:54;;;;;;;14.27;9.13;;;4.90;58.40;5.40;96623.00;;;;5048465;28;20197;-85
2022/03/05 08:20:23;;;;;;;13.03;8.93;;;5.10;58.40;5.60;96627.00;;;;5044526;28;20197;-86
2022/03/05 08:22:52;;;;;;;14.57;9.27;;;5.30;58.40;5.90;96625.00;;;;5041809;28;20193;-86
2022/03/05 08:25:20;;;;;;;14.53;9.50;;;5.50;58.40;6.10;96634.00;;;;5037345;28;20281;-87
2022/03/05 08:27:49;;;;;;;14.00;9.50;;;5.60;58.20;6.30;96623.00;;;;5034345;28;20236;-84
2022/03/05 08:30:17;;;;;;;14.33;9.50;;;5.90;58.10;6.50;96630.00;;;;5033952;28;20624;-86
2022/03/05 08:32:44;;;;;;;13.47;8.93;;;6.00;57.90;6.70;96621.00;;;;5033842;28;20224;-85
2022/03/05 08:35:13;;;;;;;15.23;9.57;;;6.40;57.90;6.90;96636.00;;;;5034999;28;20260;-85
2022/03/05 08:37:42;;;;;;;13.43;9.67;;;7.80;58.40;7.10;96647.00;;;;5033752;28;20193;-86
2022/03/05 08:40:15;;;;;;;14.43;9.87;;;6.60;57.50;7.30;96632.00;;;;5033032;28;20197;-87
2022/03/05 08:42:43;;;;;;;12.33;9.60;;;6.80;57.30;7.50;96627.00;;;;5034078;28;20197;-86
2022/03/05 08:45:11;;;;;;;15.53;10.23;;;7.00;57.10;7.70;96631.00;;;;5033551;28;20279;-88
2022/03/05 08:47:39;;;;;;;11.63;8.83;;;7.20;57.10;8.00;96646.00;;;;5033462;28;20272;-89
2022/03/05 08:50:08;;;;;;;13.33;9.27;;;7.30;57.00;8.20;96627.00;;;;5034782;28;20284;-86
2022/03/05 08:52:36;;;;;;;14.67;10.10;;;7.50;56.50;8.40;96648.00;;;;5032815;28;20755;-87
2022/03/05 08:55:06;;;;;;;12.70;9.53;;;7.70;56.30;8.60;96648.00;;;;5014138;28;20229;-87
2022/03/05 08:57:35;;;;;;;12.07;8.60;;;7.90;56.30;8.80;96647.00;;;;5026902;28;20291;-87
2022/03/05 09:00:02;;;;;;;14.00;10.03;;;9.10;56.70;9.10;96657.00;;;;5034233;28;20235;-87
2022/03/05 09:02:30;;;;;;;15.57;9.77;;;8.50;56.10;9.40;96654.00;;;;5033676;28;20194;-86
2022/03/05 09:04:57;;;;;;;13.40;9.43;;;8.50;56.00;9.70;96655.00;;;;5034443;28;20601;-87
2022/03/05 09:07:24;;;;;;;15.73;10.13;;;8.80;56.00;10.00;96661.00;;;;5032795;28;20193;-86
2022/03/05 09:09:52;;;;;;;14.77;9.70;;;9.10;55.90;10.30;96650.00;;;;5033003;28;20205;-87
2022/03/05 09:12:22;;;;;;;12.90;8.60;;;10.00;56.10;10.60;96660.00;;;;5035291;28;20205;-86
2022/03/05 09:14:51;;;;;;;13.00;8.77;;;9.80;55.60;10.80;96659.00;;;;5053467;22;21424;-81
2022/03/05 09:17:18;;;;;;;12.10;9.00;;;10.10;55.30;11.00;96657.00;;;;5052310;28;20661;-81
2022/03/05 09:19:45;;;;;;;13.97;9.60;;;10.70;54.80;11.30;96654.00;;;;5048883;28;20207;-81
2022/03/05 09:22:12;;;;;;;11.50;8.50;;;11.00;54.00;11.50;96660.00;;;;5052891;28;20208;-81
2022/03/05 09:24:39;;;;;;;11.13;8.93;;;11.40;53.90;11.70;96663.00;;;;5065636;28;20203;-81
2022/03/05 09:27:06;;;;;;;10.63;7.53;;;11.80;53.00;12.00;96663.00;;;;5068521;28;20194;-82
2022/03/05 09:29:33;;;;;;;13.20;9.13;;;12.30;52.90;12.20;96661.00;;;;5064834;28;20211;-83
2022/03/05 09:32:02;;;;;;;12.27;9.00;;;12.70;52.40;12.50;96666.00;;;;5054910;28;20203;-83
2022/03/05 09:34:30;;;;;;;11.50;8.63;;;13.20;51.30;12.80;96658.00;;;;5053479;28;20304;-83
2022/03/05 09:36:57;;;;;;;10.77;7.93;;;13.60;50.40;13.00;96659.00;;;;5053967;28;20189;-83
2022/03/05 09:39:24;;;;;;;9.00;7.17;;;13.90;50.10;13.30;96669.00;;;;5039993;28;20578;-84
2022/03/05 09:41:51;;;;;;;11.80;8.50;;;14.30;49.40;13.50;96666.00;;;;5052326;28;20674;-84
2022/03/05 09:44:18;;;;;;;10.37;8.13;;;14.60;48.90;13.80;96671.00;;;;5056178;28;20723;-82
2022/03/05 09:46:46;;;;;;;9.87;7.77;;;14.80;48.00;14.00;96664.00;;;;5040482;28;20208;-83
2022/03/05 09:49:16;;;;;;;9.87;7.80;;;15.00;46.70;14.10;96673.00;;;;5050612;28;20216;-83
2022/03/05 09:51:43;;;;;;;9.30;7.00;;;15.10;46.00;14.20;96669.00;;;;5055727;28;20211;-83
2022/03/05 09:54:10;;;;;;;8.13;6.67;;;15.10;45.60;14.20;96667.00;;;;5055727;28;20228;-83
2022/03/05 09:56:37;;;;;;;8.50;6.50;;;15.00;44.40;14.30;96667.00;;;;5048677;28;20197;-83
2022/03/05 09:59:05;;;;;;;8.00;5.73;;;14.90;44.40;14.40;96667.00;;;;5048380;28;20731;-83
2022/03/05 10:01:34;;;;;;;6.57;5.53;;;14.90;43.50;14.30;96662.00;;;;5055455;28;20193;-83
2022/03/05 10:04:02;;;;;;;6.07;5.47;;;14.70;41.40;14.30;96667.00;;;;5039316;28;20273;-83
2022/03/05 10:06:31;;;;;;;5.43;4.80;;;14.50;40.70;14.20;96657.00;;;;5048148;28;20673;-83
2022/03/05 10:08:59;;;;;;;4.60;3.80;;;14.50;41.90;14.30;96658.00;;;;5052467;28;20216;-83
2022/03/05 10:11:39;;;;;;;7.10;5.23;;;14.50;42.30;14.30;96661.00;;;;5055426;28;20197;-84
2022/03/05 10:14:15;;;;;;;5.57;5.00;;;14.50;41.10;14.20;96660.00;;;;5049096;28;20305;-83
2022/03/05 10:16:42;;;;;;;5.83;5.23;;;14.50;41.20;14.10;96665.00;;;;5053403;28;20204;-84
2022/03/05 10:19:18;;;;;;;7.53;4.50;;;14.30;40.30;14.00;96657.00;;;;5045450;28;20203;-84
2022/03/05 10:21:59;;;;;;;6.87;4.83;;;14.30;40.60;13.90;96653.00;;;;5038923;28;20193;-84
2022/03/05 10:24:34;;;;;;;4.73;4.23;;;14.10;41.10;13.90;96648.00;;;;5042151;28;20211;-82
2022/03/05 10:27:02;;;;;;;4.93;4.43;;;14.00;41.20;13.80;96650.00;;;;5048456;28;20211;-82
2022/03/05 10:29:34;;;;;;;4.90;4.00;;;13.90;41.30;13.70;96662.00;;;;5047679;28;20204;-83
2022/03/05 10:32:04;;;;;;;4.50;3.53;;;13.80;40.70;13.70;96661.00;;;;5047923;28;20231;-83
2022/03/05 10:34:55;;;;;;;5.37;4.23;;;13.60;40.80;13.60;96658.00;;;;5052932;28;20224;-82
2022/03/05 10:37:24;;;;;;;3.67;3.37;;;13.40;39.90;13.50;96657.00;;;;5038658;28;20189;-84
2022/03/05 10:39:52;;;;;;;4.70;4.20;;;13.30;40.10;13.30;96662.00;;;;5051893;28;20219;-84
2022/03/05 10:42:21;;;;;;;4.80;3.93;;;13.10;39.60;13.20;96645.00;;;;5041479;28;20218;-83
2022/03/05 10:45:01;;;;;;;3.90;3.50;;;13.00;40.00;13.10;96653.00;;;;5047784;28;20287;-84
2022/03/05 10:47:38;;;;;;;4.20;3.23;;;12.80;39.50;13.00;96646.00;;;;5045468;28;20250;-83
2022/03/05 10:50:07;;;;;;;3.87;3.17;;;12.90;39.70;13.00;96644.00;;;;5049092;28;20238;-83
2022/03/05 10:52:46;;;;;;;3.57;3.20;;;12.90;40.30;13.00;96642.00;;;;5048956;28;20221;-84
2022/03/05 10:55:19;;;;;;;4.37;3.60;;;12.90;40.60;13.00;96644.00;;;;5048319;28;20227;-84
2022/03/05 10:58:02;;;;;;;3.87;3.47;;;13.00;40.10;13.10;96636.00;;;;5045573;28;20197;-84
2022/03/05 11:00:31;;;;;;;4.17;3.77;;;13.00;39.90;13.20;96638.00;;;;5045565;28;20205;-83
2022/03/05 11:03:02;;;;;;;3.37;3.07;;;13.10;39.30;13.20;96642.00;;;;5044421;28;20217;-84
2022/03/05 11:05:30;;;;;;;3.63;2.90;;;13.10;39.10;13.20;96640.00;;;;5041326;28;20259;-83
2022/03/05 11:07:59;;;;;;;4.57;3.87;;;13.10;39.50;13.20;96635.00;;;;5052396;28;20189;-84
2022/03/05 11:10:30;;;;;;;4.80;3.80;;;13.00;39.30;13.20;96644.00;;;;5054693;28;20201;-83
2022/03/05 11:13:00;;;;;;;5.60;3.93;;;13.00;38.90;13.20;96644.00;;;;5050969;28;20209;-83